Time;durP1;ratioP1;P1;durP2;ratioP2;P2;SDS_P1;SDS_P2;PMS_P1;PMS_P2;Temp;Humidity;BMP_temperature;BMP_pressure;BME280_temperature;BME280_humidity;BME280_pressure;Samples;Min_cycle;Max_cycle;Signal;HPM_P1;HPM_P2
2022/06/29 00:02:06;;;;;;;17.60;13.50;;;;;;;20.82;86.50;100838.64;84785;1324;23928;-71
2022/06/29 00:04:13;;;;;;;16.60;13.40;;;;;;;20.79;86.64;100824.55;84775;1327;22599;-71
2022/06/29 00:06:21;;;;;;;14.60;12.40;;;;;;;20.73;86.44;100822.84;84796;1327;22748;-72
2022/06/29 00:08:29;;;;;;;15.60;14.10;;;;;;;20.70;86.68;100827.88;84768;1327;24030;-73
2022/06/29 00:10:37;;;;;;;14.80;13.20;;;;;;;20.69;87.41;100830.08;84760;1327;24254;-73
2022/06/29 00:12:45;;;;;;;13.80;12.40;;;;;;;20.71;87.51;100835.06;84776;1327;22560;-74
2022/06/29 00:14:53;;;;;;;14.60;13.00;;;;;;;20.72;87.39;100840.67;84798;1327;22976;-73
2022/06/29 00:17:00;;;;;;;15.50;13.90;;;;;;;20.71;87.35;100843.19;84785;1327;23086;-74
2022/06/29 00:19:08;;;;;;;14.70;13.10;;;;;;;20.73;87.59;100839.34;84777;1327;22556;-72
2022/06/29 00:21:15;;;;;;;16.00;14.40;;;;;;;20.74;87.63;100833.55;84782;1327;22606;-72
2022/06/29 00:23:23;;;;;;;14.80;13.30;;;;;;;20.74;87.55;100832.35;84787;1329;22597;-73
2022/06/29 00:25:30;;;;;;;15.00;13.40;;;;;;;20.71;87.24;100828.98;84789;1327;22590;-74
2022/06/29 00:27:38;;;;;;;14.80;13.40;;;;;;;20.69;87.39;100825.79;84775;1327;22699;-74
2022/06/29 00:29:45;;;;;;;19.20;14.70;;;;;;;20.70;87.30;100823.11;84791;1331;22625;-74
2022/06/29 00:31:53;;;;;;;16.00;14.40;;;;;;;20.69;87.33;100813.94;84789;1327;22688;-74
2022/06/29 00:34:00;;;;;;;16.90;15.30;;;;;;;20.68;87.51;100817.73;84768;1327;24232;-74
2022/06/29 00:36:08;;;;;;;16.30;14.30;;;;;;;20.68;88.07;100822.51;84771;1327;25503;-73
2022/06/29 00:38:16;;;;;;;15.30;13.40;;;;;;;20.71;88.31;100824.73;84784;1325;22553;-74
2022/06/29 00:40:23;;;;;;;18.40;15.30;;;;;;;20.73;88.42;100818.20;84795;1327;22685;-74
2022/06/29 00:42:31;;;;;;;17.70;15.40;;;;;;;20.75;88.28;100817.00;84728;1332;22559;-73
2022/06/29 00:44:39;;;;;;;16.30;14.70;;;;;;;20.74;87.89;100813.17;84787;1327;22553;-73
2022/06/29 00:46:51;;;;;;;17.10;15.40;;;;;;;20.71;87.58;100818.74;84777;1327;25253;-73
2022/06/29 00:48:58;;;;;;;15.30;13.70;;;;;;;20.69;87.93;100824.00;84783;1327;22833;-74
2022/06/29 00:51:06;;;;;;;16.40;14.30;;;;;;;20.70;88.27;100819.13;84777;1327;23874;-73
2022/06/29 00:53:16;;;;;;;17.20;15.50;;;;;;;20.74;88.63;100816.01;84799;1327;22569;-73
2022/06/29 00:55:24;;;;;;;18.40;16.60;;;;;;;20.79;88.68;100813.21;84784;1327;22555;-71
2022/06/29 00:57:32;;;;;;;20.10;15.40;;;;;;;20.79;88.25;100815.33;84763;1327;22697;-71
2022/06/29 00:59:45;;;;;;;16.80;15.20;;;;;;;20.80;88.40;100808.88;84777;1327;23913;-73
2022/06/29 01:01:52;;;;;;;27.60;16.50;;;;;;;20.79;88.31;100798.98;84766;1327;23447;-72
2022/06/29 01:04:00;;;;;;;18.50;16.60;;;;;;;20.79;88.27;100788.52;84758;1327;22581;-72
2022/06/29 01:06:07;;;;;;;18.50;16.80;;;;;;;20.79;88.25;100778.56;84773;1322;22631;-72
2022/06/29 01:08:16;;;;;;;21.40;19.10;;;;;;;20.79;88.26;100775.92;84760;1323;22589;-72
2022/06/29 01:10:24;;;;;;;21.70;19.40;;;;;;;20.80;88.07;100770.52;84769;1327;23044;-72
2022/06/29 01:12:31;;;;;;;20.80;18.20;;;;;;;20.79;87.90;100778.10;84760;1325;22597;-72
2022/06/29 01:14:39;;;;;;;21.80;19.10;;;;;;;20.76;87.98;100774.57;84782;1327;24243;-72
2022/06/29 01:16:47;;;;;;;23.30;19.50;;;;;;;20.75;87.98;100771.83;84785;1327;24238;-73
2022/06/29 01:18:55;;;;;;;20.20;18.10;;;;;;;20.75;88.14;100767.41;84785;1323;22596;-72
2022/06/29 01:21:05;;;;;;;23.00;19.60;;;;;;;20.73;88.06;100761.88;84766;1327;24021;-72
2022/06/29 01:23:13;;;;;;;23.30;20.80;;;;;;;20.72;88.15;100759.80;84790;1327;22738;-73
2022/06/29 01:25:20;;;;;;;23.10;20.70;;;;;;;20.70;87.98;100757.48;84778;1325;22691;-72
2022/06/29 01:27:28;;;;;;;25.60;21.10;;;;;;;20.68;88.08;100755.86;84783;1327;24279;-72
2022/06/29 01:29:35;;;;;;;27.80;22.50;;;;;;;20.66;88.16;100752.77;84780;1327;22854;-72
2022/06/29 01:31:43;;;;;;;27.40;22.00;;;;;;;20.68;88.30;100746.11;84771;1327;24891;-72
2022/06/29 01:33:51;;;;;;;26.10;23.30;;;;;;;20.69;88.35;100750.63;84769;1327;23067;-72
2022/06/29 01:35:59;;;;;;;24.50;21.90;;;;;;;20.70;88.25;100749.30;84770;1327;22610;-72
2022/06/29 01:38:06;;;;;;;26.30;22.90;;;;;;;20.70;88.21;100747.21;84772;1327;24214;-72
2022/06/29 01:40:15;;;;;;;25.50;22.80;;;;;;;20.69;88.24;100745.14;84769;1327;22719;-72
2022/06/29 01:42:23;;;;;;;24.30;21.80;;;;;;;20.67;87.97;100739.61;84774;1327;22613;-72
2022/06/29 01:44:30;;;;;;;29.10;22.70;;;;;;;20.66;87.98;100736.19;84794;1327;24241;-72
2022/06/29 01:46:37;;;;;;;26.80;22.40;;;;;;;20.64;88.02;100736.27;84779;1327;22647;-73
2022/06/29 01:48:45;;;;;;;27.40;21.30;;;;;;;20.63;87.86;100737.25;84774;1327;22556;-72
2022/06/29 01:50:53;;;;;;;23.90;21.50;;;;;;;20.60;87.72;100734.44;84755;1327;22572;-72
2022/06/29 01:53:02;;;;;;;25.50;18.40;;;;;;;20.54;87.37;100728.01;84769;1327;22601;-72
2022/06/29 01:55:11;;;;;;;20.10;18.00;;;;;;;20.43;87.24;100728.04;84751;1330;24808;-72
2022/06/29 01:57:18;;;;;;;20.40;18.30;;;;;;;20.36;87.41;100732.32;84760;1327;22563;-72
2022/06/29 01:59:26;;;;;;;19.80;17.20;;;;;;;20.27;87.52;100733.62;84772;1327;22568;-72
2022/06/29 02:01:33;;;;;;;17.30;15.60;;;;;;;20.18;87.55;100733.22;84779;1327;22755;-72
2022/06/29 02:03:40;;;;;;;20.20;16.40;;;;;;;20.14;87.61;100732.48;84782;1327;24237;-72
2022/06/29 02:05:48;;;;;;;17.40;15.40;;;;;;;20.08;87.61;100734.27;84760;1327;24279;-72
2022/06/29 02:07:55;;;;;;;15.90;14.30;;;;;;;20.05;87.78;100738.80;84783;1330;24213;-72
2022/06/29 02:10:03;;;;;;;15.00;13.50;;;;;;;20.00;87.65;100736.64;84783;1327;25438;-72
2022/06/29 02:12:13;;;;;;;15.50;14.10;;;;;;;19.98;87.74;100734.50;84788;1327;23988;-73
2022/06/29 02:14:21;;;;;;;15.00;13.60;;;;;;;19.95;87.76;100734.02;84779;1327;22580;-72
2022/06/29 02:16:28;;;;;;;14.40;12.90;;;;;;;19.93;87.67;100731.48;84783;1325;22615;-72
2022/06/29 02:18:36;;;;;;;13.10;11.90;;;;;;;19.89;87.65;100730.20;84783;1331;22591;-73
2022/06/29 02:20:43;;;;;;;17.70;11.70;;;;;;;19.85;87.61;100729.05;84778;1327;22752;-72
2022/06/29 02:22:51;;;;;;;14.60;13.10;;;;;;;19.83;87.78;100727.40;84772;1327;23867;-72
2022/06/29 02:24:58;;;;;;;13.30;11.90;;;;;;;19.82;87.82;100730.53;84774;1326;22688;-73
2022/06/29 02:27:06;;;;;;;13.00;11.80;;;;;;;19.80;87.90;100731.20;84768;1327;22597;-73
2022/06/29 02:29:14;;;;;;;13.20;11.90;;;;;;;19.78;87.78;100735.59;84771;1327;22584;-73
2022/06/29 02:36:25;;;;;;;12.80;11.60;;;;;;;19.69;88.39;100735.56;84416;1338;22644;-73
2022/06/29 02:38:34;;;;;;;10.90;10.00;;;;;;;19.71;88.30;100733.58;84508;1328;23433;-73
2022/06/29 02:40:41;;;;;;;12.00;10.80;;;;;;;19.72;88.40;100736.52;84779;1327;22619;-73
2022/06/29 02:42:49;;;;;;;11.40;10.30;;;;;;;19.73;88.42;100739.87;84776;1325;22783;-73
2022/06/29 02:44:56;;;;;;;11.30;10.10;;;;;;;19.75;88.70;100738.30;84774;1327;22647;-72
2022/06/29 02:47:04;;;;;;;10.60;9.60;;;;;;;19.77;88.82;100733.02;84759;1327;25036;-72
2022/06/29 02:49:11;;;;;;;13.90;10.50;;;;;;;19.79;88.74;100736.36;84789;1327;22678;-72
2022/06/29 02:51:19;;;;;;;11.20;10.10;;;;;;;19.82;89.13;100737.05;84774;1324;22569;-72
2022/06/29 02:53:26;;;;;;;13.80;10.50;;;;;;;19.88;89.32;100740.52;84772;1327;24229;-72
2022/06/29 02:55:34;;;;;;;11.10;10.00;;;;;;;19.91;89.04;100739.98;84770;1325;22671;-72
2022/06/29 02:57:41;;;;;;;12.70;11.30;;;;;;;19.93;88.96;100739.30;84768;1327;24069;-72
2022/06/29 02:59:49;;;;;;;12.70;11.50;;;;;;;19.94;88.95;100737.30;84762;1329;22613;-72
2022/06/29 03:01:57;;;;;;;14.40;13.00;;;;;;;19.97;88.77;100735.66;84748;1324;22613;-72
2022/06/29 03:04:04;;;;;;;14.60;13.20;;;;;;;19.95;88.49;100736.67;84774;1327;24017;-72
2022/06/29 03:06:12;;;;;;;15.70;12.80;;;;;;;19.95;88.62;100740.38;84782;1327;22545;-72
2022/06/29 03:08:19;;;;;;;14.00;12.60;;;;;;;19.95;88.32;100739.55;84770;1330;23806;-72
2022/06/29 03:10:27;;;;;;;16.80;12.50;;;;;;;19.91;88.24;100736.10;84776;1327;23817;-72
2022/06/29 03:12:34;;;;;;;15.90;12.60;;;;;;;19.90;88.37;100743.23;84753;1327;22611;-72
2022/06/29 03:14:42;;;;;;;15.00;13.50;;;;;;;19.90;88.57;100739.85;84768;1327;22593;-72
2022/06/29 03:16:49;;;;;;;16.70;13.90;;;;;;;19.94;88.75;100738.89;84775;1327;22604;-72
2022/06/29 03:18:57;;;;;;;15.10;13.20;;;;;;;19.96;88.72;100736.42;84746;1330;24265;-72
2022/06/29 03:21:04;;;;;;;15.40;13.10;;;;;;;19.97;88.81;100731.06;84765;1327;25439;-72
2022/06/29 03:23:12;;;;;;;16.60;13.00;;;;;;;20.01;89.01;100727.91;84774;1330;22603;-72
2022/06/29 03:25:20;;;;;;;15.80;13.60;;;;;;;20.03;88.81;100728.31;84770;1327;22562;-72
2022/06/29 03:27:27;;;;;;;15.80;13.60;;;;;;;20.04;88.92;100727.68;84801;1328;23990;-73
2022/06/29 03:29:35;;;;;;;15.70;13.60;;;;;;;20.06;88.83;100726.34;84766;1327;23812;-73
2022/06/29 03:31:42;;;;;;;17.00;13.40;;;;;;;20.08;88.95;100730.79;84619;1328;22704;-73
2022/06/29 03:33:50;;;;;;;15.00;13.50;;;;;;;20.12;89.05;100732.83;84594;1330;23925;-73
2022/06/29 03:35:57;;;;;;;16.70;14.80;;;;;;;20.15;89.22;100730.46;84768;1327;22617;-73
2022/06/29 03:38:05;;;;;;;18.40;15.80;;;;;;;20.18;89.25;100729.67;84762;1327;22550;-73
2022/06/29 03:40:14;;;;;;;15.50;14.00;;;;;;;20.22;88.92;100729.73;84754;1327;24256;-73
2022/06/29 03:42:21;;;;;;;17.00;14.40;;;;;;;20.24;89.02;100729.05;84777;1325;22635;-73
2022/06/29 03:44:29;;;;;;;20.00;13.60;;;;;;;20.26;88.93;100731.61;84767;1327;22611;-73
2022/06/29 03:46:36;;;;;;;14.70;12.80;;;;;;;20.27;89.01;100736.79;84768;1327;22594;-73
2022/06/29 03:48:44;;;;;;;16.90;15.10;;;;;;;20.32;89.14;100738.63;84773;1327;22545;-73
2022/06/29 03:50:51;;;;;;;16.60;14.60;;;;;;;20.33;88.81;100743.63;84790;1327;23934;-73
2022/06/29 03:52:59;;;;;;;16.50;14.50;;;;;;;20.36;89.10;100741.52;84770;1327;22615;-73
2022/06/29 03:55:08;;;;;;;17.40;15.70;;;;;;;20.39;88.91;100734.56;84783;1327;25415;-73
2022/06/29 03:57:15;;;;;;;22.50;17.20;;;;;;;20.42;88.88;100728.85;84772;1327;24079;-73
2022/06/29 03:59:23;;;;;;;20.40;16.90;;;;;;;20.41;88.56;100730.52;84786;1322;22595;-73
2022/06/29 04:01:30;;;;;;;18.90;16.20;;;;;;;20.45;88.79;100725.41;84769;1329;22590;-73
2022/06/29 04:03:38;;;;;;;17.90;15.60;;;;;;;20.46;88.67;100722.48;84753;1329;25506;-73
2022/06/29 04:05:45;;;;;;;17.60;14.70;;;;;;;20.47;88.49;100721.39;84769;1327;24303;-73
2022/06/29 04:07:53;;;;;;;19.40;16.60;;;;;;;20.51;88.56;100717.60;84762;1322;22679;-73
2022/06/29 04:10:00;;;;;;;19.60;16.60;;;;;;;20.51;88.17;100710.48;84769;1325;22599;-73
2022/06/29 04:12:09;;;;;;;18.00;16.00;;;;;;;20.54;88.29;100704.24;84748;1327;22586;-73
2022/06/29 04:14:17;;;;;;;17.70;15.80;;;;;;;20.58;88.34;100697.39;84758;1327;22924;-73
2022/06/29 04:16:25;;;;;;;23.70;16.30;;;;;;;20.59;88.09;100696.58;84776;1331;22602;-73
2022/06/29 04:18:32;;;;;;;18.20;16.30;;;;;;;20.59;87.78;100692.88;84762;1327;24483;-73
2022/06/29 04:23:05;;;;;;;16.50;14.50;;;;;;;20.55;87.42;100698.70;84776;1327;22604;-73
2022/06/29 04:25:12;;;;;;;19.30;15.10;;;;;;;20.56;87.42;100701.42;84778;1327;22638;-73
2022/06/29 04:27:20;;;;;;;15.60;13.90;;;;;;;20.57;87.51;100699.42;84796;1327;22590;-73
2022/06/29 04:29:27;;;;;;;16.00;13.60;;;;;;;20.58;87.57;100695.40;84767;1327;22752;-73
2022/06/29 04:31:35;;;;;;;14.90;13.40;;;;;;;20.60;87.60;100693.47;84756;1327;25259;-73
2022/06/29 04:33:42;;;;;;;17.10;13.50;;;;;;;20.64;87.68;100697.14;84777;1327;23975;-73
2022/06/29 04:35:50;;;;;;;15.20;13.60;;;;;;;20.67;87.59;100696.02;84754;1326;22603;-73
2022/06/29 04:37:57;;;;;;;15.50;13.00;;;;;;;20.68;87.30;100695.25;84758;1327;23806;-71
2022/06/29 04:40:06;;;;;;;14.80;11.80;;;;;;;20.65;87.02;100697.05;84761;1327;22742;-72
2022/06/29 04:42:13;;;;;;;13.40;11.70;;;;;;;20.66;87.09;100694.88;84782;1327;25440;-73
2022/06/29 04:44:21;;;;;;;12.70;11.40;;;;;;;20.66;86.86;100697.11;84757;1327;22622;-73
2022/06/29 04:46:29;;;;;;;12.80;11.40;;;;;;;20.68;86.75;100690.80;84772;1327;22671;-73
2022/06/29 04:48:36;;;;;;;12.60;11.30;;;;;;;20.67;86.54;100692.66;84773;1327;22568;-73
2022/06/29 04:50:44;;;;;;;13.10;11.70;;;;;;;20.64;86.39;100690.38;84755;1327;22576;-72
2022/06/29 04:52:51;;;;;;;13.70;12.10;;;;;;;20.64;86.56;100688.46;84785;1327;22591;-72
2022/06/29 04:55:02;;;;;;;14.20;12.30;;;;;;;20.65;86.23;100691.89;84776;1327;22712;-72
2022/06/29 04:57:10;;;;;;;13.20;12.00;;;;;;;20.65;86.21;100692.06;84779;1327;22724;-72
2022/06/29 04:59:19;;;;;;;14.10;12.60;;;;;;;20.65;86.10;100696.36;84790;1327;22591;-72
2022/06/29 05:01:27;;;;;;;13.00;10.70;;;;;;;20.63;86.20;100699.66;84786;1327;22694;-73
2022/06/29 05:03:35;;;;;;;14.90;11.90;;;;;;;20.64;86.41;100706.36;84796;1327;23971;-72
2022/06/29 05:05:42;;;;;;;13.00;11.80;;;;;;;20.65;86.17;100713.70;84775;1327;22670;-72
2022/06/29 05:07:50;;;;;;;12.90;10.40;;;;;;;20.67;86.35;100714.95;84760;1327;22654;-72
2022/06/29 05:09:57;;;;;;;11.50;10.30;;;;;;;20.68;86.27;100712.56;84793;1327;23978;-72
2022/06/29 05:12:07;;;;;;;14.90;12.20;;;;;;;20.70;86.22;100710.84;84777;1327;23846;-72
2022/06/29 05:14:15;;;;;;;12.20;10.50;;;;;;;20.72;86.06;100714.78;84749;1327;23947;-72
2022/06/29 05:16:22;;;;;;;12.20;10.90;;;;;;;20.71;85.78;100716.04;84759;1330;22671;-72
2022/06/29 05:18:32;;;;;;;12.20;11.10;;;;;;;20.71;85.80;100719.30;84767;1324;22610;-72
2022/06/29 05:20:38;;;;;;;;;;;;;;;20.74;85.89;100720.13;84796;1325;24265;-72
2022/06/29 05:22:46;;;;;;;12.00;10.60;;;;;;;20.68;85.74;100719.65;84753;1327;24398;-72
2022/06/29 05:24:54;;;;;;;11.00;10.10;;;;;;;20.69;86.06;100720.50;84792;1327;22678;-72
2022/06/29 05:27:02;;;;;;;11.40;10.30;;;;;;;20.75;86.17;100722.52;84789;1327;22668;-72
2022/06/29 05:29:09;;;;;;;12.00;10.80;;;;;;;20.81;86.21;100726.86;84753;1327;22585;-72
2022/06/29 05:31:18;;;;;;;11.10;10.00;;;;;;;20.87;86.19;100722.30;84771;1327;22614;-72
2022/06/29 05:33:26;;;;;;;11.60;10.50;;;;;;;20.91;85.71;100720.08;84783;1327;22682;-72
2022/06/29 05:35:34;;;;;;;11.00;9.90;;;;;;;20.94;85.72;100715.58;84771;1327;23802;-72
2022/06/29 05:37:41;;;;;;;12.10;11.10;;;;;;;21.01;85.98;100711.69;84793;1327;22689;-72
2022/06/29 05:39:49;;;;;;;13.40;10.10;;;;;;;21.05;85.51;100711.73;84763;1327;22618;-72
2022/06/29 05:41:56;;;;;;;12.00;10.10;;;;;;;21.11;85.24;100711.80;84775;1330;25442;-72
2022/06/29 05:44:04;;;;;;;13.50;10.90;;;;;;;21.19;85.13;100714.93;84762;1327;22758;-72
2022/06/29 05:46:12;;;;;;;11.20;10.10;;;;;;;21.25;84.93;100712.86;84764;1327;24001;-72
2022/06/29 05:48:19;;;;;;;12.10;9.90;;;;;;;21.29;84.36;100710.61;84775;1327;22726;-72
2022/06/29 05:50:27;;;;;;;10.40;9.60;;;;;;;21.33;84.02;100710.87;84801;1327;24298;-72
2022/06/29 05:52:34;;;;;;;12.00;10.90;;;;;;;21.35;83.64;100711.89;84761;1327;25321;-72
2022/06/29 05:54:41;;;;;;;11.00;10.00;;;;;;;21.47;84.07;100715.45;84766;1327;22731;-72
2022/06/29 05:56:49;;;;;;;10.30;9.40;;;;;;;21.62;84.40;100711.93;84781;1321;22617;-72
2022/06/29 05:58:57;;;;;;;10.80;9.70;;;;;;;21.73;83.54;100707.73;84754;1321;22594;-73
2022/06/29 06:01:06;;;;;;;10.50;9.60;;;;;;;21.72;82.61;100715.75;84773;1327;22542;-72
2022/06/29 06:03:14;;;;;;;11.10;10.10;;;;;;;21.66;82.09;100719.29;84760;1321;22799;-72
2022/06/29 06:05:22;;;;;;;11.60;10.60;;;;;;;21.61;81.85;100729.09;84772;1329;23848;-72
2022/06/29 06:07:29;;;;;;;11.70;10.50;;;;;;;21.56;81.83;100727.97;84778;1328;22580;-72
2022/06/29 06:09:37;;;;;;;12.00;10.80;;;;;;;21.54;82.02;100725.36;84775;1327;22552;-72
2022/06/29 06:11:44;;;;;;;14.00;10.60;;;;;;;21.53;82.19;100724.86;84753;1327;22559;-72
2022/06/29 06:13:51;;;;;;;12.40;11.20;;;;;;;21.55;82.48;100721.73;84757;1330;22600;-72
2022/06/29 06:15:59;;;;;;;13.10;11.40;;;;;;;21.53;82.25;100721.17;84755;1327;24238;-72
2022/06/29 06:18:07;;;;;;;12.30;10.80;;;;;;;21.52;82.07;100725.88;84781;1327;22607;-72
2022/06/29 06:20:15;;;;;;;13.90;11.60;;;;;;;21.49;81.84;100730.91;84762;1327;25429;-73
2022/06/29 06:22:23;;;;;;;12.70;11.50;;;;;;;21.44;81.70;100733.38;84771;1327;22626;-73
2022/06/29 06:24:30;;;;;;;14.70;13.40;;;;;;;21.39;81.60;100739.67;84761;1327;22602;-73
2022/06/29 06:26:38;;;;;;;14.40;12.80;;;;;;;21.36;81.55;100738.27;84764;1327;22623;-73
2022/06/29 06:28:46;;;;;;;15.20;12.10;;;;;;;21.34;81.49;100735.75;84760;1327;25567;-72
2022/06/29 06:30:54;;;;;;;14.40;13.00;;;;;;;21.31;81.57;100738.98;84761;1327;23931;-72
2022/06/29 06:33:01;;;;;;;14.70;12.60;;;;;;;21.31;82.04;100739.00;84758;1328;23930;-73
2022/06/29 06:35:11;;;;;;;12.70;10.80;;;;;;;21.31;82.24;100736.67;84766;1327;22618;-73
2022/06/29 06:37:17;;;;;;;;;;;;;;;21.32;82.60;100735.63;84774;1327;23901;-73
2022/06/29 06:39:25;;;;;;;12.80;11.40;;;;;;;21.28;82.68;100735.33;84740;1327;25358;-73
2022/06/29 06:41:32;;;;;;;16.40;11.20;;;;;;;21.30;83.10;100732.55;84721;1330;24338;-73
2022/06/29 06:43:39;;;;;;;12.20;10.20;;;;;;;21.31;83.27;100732.10;84741;1327;22591;-73
2022/06/29 06:45:47;;;;;;;13.10;11.90;;;;;;;21.37;83.60;100730.92;84753;1327;22646;-72
2022/06/29 06:47:54;;;;;;;14.40;12.30;;;;;;;21.42;83.31;100734.25;84749;1327;22742;-73
2022/06/29 06:50:02;;;;;;;13.80;11.80;;;;;;;21.47;83.14;100732.84;84722;1327;22607;-73
2022/06/29 06:52:09;;;;;;;14.60;13.00;;;;;;;21.52;83.07;100733.12;84704;1327;22579;-72
2022/06/29 06:54:17;;;;;;;13.70;12.20;;;;;;;21.58;82.88;100736.72;84704;1329;22549;-72
2022/06/29 06:56:25;;;;;;;16.20;12.70;;;;;;;21.61;82.75;100746.81;84658;1327;22621;-71
2022/06/29 06:58:35;;;;;;;13.80;12.20;;;;;;;21.63;82.83;100748.42;84664;1328;22835;-72
2022/06/29 07:00:43;;;;;;;15.10;12.60;;;;;;;21.65;82.97;100755.53;84780;1327;22615;-72
2022/06/29 07:02:51;;;;;;;12.10;10.90;;;;;;;21.68;82.87;100753.59;84755;1324;22614;-72
2022/06/29 07:04:58;;;;;;;16.30;12.80;;;;;;;21.70;82.91;100750.91;84787;1327;22556;-72
2022/06/29 07:07:06;;;;;;;18.40;12.80;;;;;;;21.78;83.32;100743.85;84572;1330;24213;-72
2022/06/29 07:09:13;;;;;;;16.70;13.80;;;;;;;21.92;83.69;100747.71;84738;1324;22777;-72
2022/06/29 07:11:21;;;;;;;15.40;13.80;;;;;;;21.98;83.16;100752.11;84778;1331;23994;-72
2022/06/29 07:13:29;;;;;;;13.90;12.60;;;;;;;21.97;82.60;100753.39;84761;1327;25465;-72
2022/06/29 07:15:36;;;;;;;16.80;11.60;;;;;;;21.95;82.26;100754.79;84760;1327;22597;-72
2022/06/29 07:17:44;;;;;;;16.90;14.00;;;;;;;21.90;81.63;100759.30;84779;1327;23961;-72
2022/06/29 07:19:52;;;;;;;13.70;12.30;;;;;;;21.83;81.19;100764.11;84789;1327;22696;-77
2022/06/29 07:21:59;;;;;;;15.70;14.00;;;;;;;21.77;81.14;100764.61;84802;1327;23929;-78
2022/06/29 07:24:08;;;;;;;15.30;13.10;;;;;;;21.75;81.31;100761.20;84762;1327;22527;-78
2022/06/29 07:26:15;;;;;;;14.60;13.20;;;;;;;21.77;81.74;100761.70;84773;1327;22631;-78
2022/06/29 07:28:23;;;;;;;13.50;12.10;;;;;;;21.83;82.11;100754.70;84766;1331;22549;-78
2022/06/29 07:30:30;;;;;;;14.10;11.90;;;;;;;21.94;82.70;100756.12;84796;1324;22590;-78
2022/06/29 07:32:38;;;;;;;14.60;13.30;;;;;;;22.01;82.73;100751.46;84796;1325;22644;-77
2022/06/29 07:34:45;;;;;;;12.80;11.70;;;;;;;22.07;82.23;100755.41;84786;1327;22549;-78
2022/06/29 07:36:53;;;;;;;13.80;12.20;;;;;;;22.11;82.13;100752.59;84764;1327;22638;-78
2022/06/29 07:39:00;;;;;;;12.00;10.80;;;;;;;22.10;81.05;100748.10;84786;1327;22615;-78
2022/06/29 07:41:08;;;;;;;12.70;11.50;;;;;;;22.04;80.71;100745.13;84769;1327;22604;-77
2022/06/29 07:43:16;;;;;;;12.90;11.60;;;;;;;21.97;79.96;100744.55;84781;1327;22762;-78
2022/06/29 07:45:23;;;;;;;14.30;13.00;;;;;;;21.91;80.24;100746.41;84773;1325;22543;-78
2022/06/29 07:47:31;;;;;;;16.70;14.80;;;;;;;21.87;80.34;100746.34;84786;1327;24234;-78
2022/06/29 07:49:42;;;;;;;15.30;13.60;;;;;;;21.83;80.16;100745.08;84769;1327;22647;-78
2022/06/29 07:51:49;;;;;;;15.30;13.80;;;;;;;21.77;80.09;100750.73;84779;1329;26008;-78
2022/06/29 07:53:57;;;;;;;16.00;14.40;;;;;;;21.71;80.03;100749.99;84617;1331;23963;-78
2022/06/29 07:56:04;;;;;;;14.20;12.80;;;;;;;21.65;80.20;100746.48;84787;1327;22639;-78
2022/06/29 07:58:12;;;;;;;15.90;14.30;;;;;;;21.66;80.64;100745.70;84785;1327;23918;-78
2022/06/29 08:00:21;;;;;;;16.60;15.00;;;;;;;21.66;80.72;100746.41;84761;1328;22581;-77
2022/06/29 08:02:29;;;;;;;16.20;14.60;;;;;;;21.64;80.76;100744.80;84785;1327;22724;-77
2022/06/29 08:04:36;;;;;;;17.90;15.20;;;;;;;21.62;80.84;100749.05;84783;1327;22688;-78
2022/06/29 08:06:44;;;;;;;16.60;14.90;;;;;;;21.61;80.76;100752.83;84792;1327;22607;-77
2022/06/29 08:08:52;;;;;;;17.20;15.40;;;;;;;21.59;80.76;100749.27;84773;1327;25432;-77
2022/06/29 08:10:59;;;;;;;16.70;14.50;;;;;;;21.60;81.06;100746.73;84781;1327;22616;-77
2022/06/29 08:13:07;;;;;;;16.00;14.60;;;;;;;21.66;81.28;100746.06;84620;1330;22624;-77
2022/06/29 08:15:17;;;;;;;16.50;14.70;;;;;;;21.72;81.32;100745.92;84748;1321;22765;-78
2022/06/29 08:17:27;;;;;;;15.70;14.10;;;;;;;21.78;81.15;100745.14;84774;1327;25329;-77
2022/06/29 08:19:35;;;;;;;14.70;13.20;;;;;;;21.85;81.12;100744.41;84798;1327;22616;-78
2022/06/29 08:21:43;;;;;;;18.30;13.20;;;;;;;21.91;80.55;100742.11;84783;1327;22868;-78
2022/06/29 08:23:50;;;;;;;15.50;13.30;;;;;;;21.97;80.46;100739.02;84773;1326;22614;-78
2022/06/29 08:25:58;;;;;;;15.40;14.00;;;;;;;22.03;80.21;100737.08;84792;1327;22595;-78
2022/06/29 08:28:06;;;;;;;17.20;14.80;;;;;;;22.08;79.85;100737.95;84793;1327;24226;-78
2022/06/29 08:30:16;;;;;;;15.70;14.10;;;;;;;22.12;79.96;100736.20;84800;1328;22795;-77
2022/06/29 08:32:23;;;;;;;14.90;12.90;;;;;;;22.18;79.51;100728.65;84629;1332;22609;-77
2022/06/29 08:34:32;;;;;;;15.00;12.60;;;;;;;22.25;79.70;100729.48;84758;1329;22549;-78
2022/06/29 08:36:42;;;;;;;13.90;12.60;;;;;;;22.32;79.15;100717.35;84791;1327;22578;-77
2022/06/29 08:38:49;;;;;;;15.10;13.10;;;;;;;22.45;79.74;100721.27;84791;1327;22790;-77
2022/06/29 08:41:02;;;;;;;13.50;12.20;;;;;;;22.56;79.11;100719.09;84633;1330;25952;-78
2022/06/29 08:43:10;;;;;;;13.80;12.40;;;;;;;22.59;78.56;100717.42;84772;1327;22597;-78
2022/06/29 08:45:18;;;;;;;14.60;13.20;;;;;;;22.64;78.90;100719.66;84784;1327;22949;-77
2022/06/29 08:47:26;;;;;;;14.60;13.20;;;;;;;22.71;78.90;100715.21;84783;1329;24298;-77
2022/06/29 08:49:33;;;;;;;15.10;12.50;;;;;;;22.76;78.10;100713.38;84758;1327;22909;-77
2022/06/29 08:51:41;;;;;;;14.30;12.10;;;;;;;22.77;77.93;100711.17;84788;1325;24482;-77
2022/06/29 08:53:49;;;;;;;13.20;11.70;;;;;;;22.77;77.17;100706.68;84801;1327;22608;-78
2022/06/29 08:55:56;;;;;;;13.00;11.50;;;;;;;22.74;76.86;100708.93;84812;1327;25435;-78
2022/06/29 08:58:04;;;;;;;19.20;12.40;;;;;;;22.76;77.40;100706.98;84784;1327;22596;-79
2022/06/29 09:00:13;;;;;;;14.40;12.60;;;;;;;22.80;76.93;100713.34;84670;1324;22766;-79
2022/06/29 09:02:22;;;;;;;13.20;12.10;;;;;;;22.83;76.62;100714.77;84785;1327;22556;-78
2022/06/29 09:04:29;;;;;;;12.20;11.00;;;;;;;22.84;76.18;100717.80;84762;1327;22558;-77
2022/06/29 09:06:37;;;;;;;13.10;11.90;;;;;;;22.93;76.43;100716.41;84775;1327;22603;-78
2022/06/29 09:08:44;;;;;;;12.70;11.50;;;;;;;23.01;75.97;100720.36;84803;1327;25438;-78
2022/06/29 09:10:52;;;;;;;13.80;11.90;;;;;;;23.08;75.63;100721.75;84775;1327;22597;-78
2022/06/29 09:13:01;;;;;;;11.20;10.10;;;;;;;23.07;74.94;100719.14;84758;1328;22640;-78
2022/06/29 09:15:11;;;;;;;13.20;11.90;;;;;;;23.05;75.41;100717.86;84791;1327;24399;-78
2022/06/29 09:17:18;;;;;;;;;;;;;;;23.09;75.24;100722.14;84819;1327;22562;-73
2022/06/29 09:19:27;;;;;;;13.10;11.80;;;;;;;23.06;75.38;100727.58;84788;1327;22610;-75
2022/06/29 09:21:38;;;;;;;17.30;11.70;;;;;;;23.07;75.50;100724.41;84772;1324;24220;-75
2022/06/29 09:23:46;;;;;;;14.00;11.80;;;;;;;23.09;75.25;100729.61;84783;1327;24374;-75
2022/06/29 09:25:56;;;;;;;12.20;10.40;;;;;;;23.11;74.85;100730.23;84777;1327;24239;-75
2022/06/29 09:28:21;;;;;;;12.50;10.60;;;;;;;23.10;74.63;100734.89;84800;1327;25243;-75
2022/06/29 09:30:30;;;;;;;12.40;11.40;;;;;;;23.15;74.63;100734.26;84765;1330;22682;-75
2022/06/29 09:32:38;;;;;;;12.80;11.60;;;;;;;23.16;74.12;100735.05;84781;1327;22603;-75
2022/06/29 09:34:47;;;;;;;12.00;10.90;;;;;;;23.17;74.41;100733.00;84794;1327;22722;-75
2022/06/29 09:37:05;;;;;;;12.90;11.70;;;;;;;23.24;74.40;100728.92;84802;1327;22608;-75
2022/06/29 09:39:13;;;;;;;13.00;11.70;;;;;;;23.23;73.67;100729.85;84792;1327;24229;-75
2022/06/29 09:41:20;;;;;;;13.80;12.60;;;;;;;23.21;73.48;100727.38;84813;1328;22694;-74
2022/06/29 09:43:28;;;;;;;12.70;11.50;;;;;;;23.21;73.77;100728.60;84797;1327;22622;-74
2022/06/29 09:45:35;;;;;;;13.30;11.50;;;;;;;23.29;73.98;100726.90;84791;1327;22613;-74
2022/06/29 09:47:43;;;;;;;11.70;10.70;;;;;;;23.33;73.74;100727.95;84789;1327;22597;-74
2022/06/29 09:49:54;;;;;;;11.30;10.30;;;;;;;23.46;74.09;100726.84;84776;1330;22645;-75